Time,TemperatureF,DewpointF,PressureIn,WindDirection,WindDirectionDegrees,WindSpeedMPH,WindSpeedGustMPH,Humidity,HourlyPrecipIn,Conditions,Clouds,dailyrainin,SolarRadiationWatts/m^2,SoftwareType,DateUTC
2013-09-19 00:01:00,52.2,49.0,30.10,SSW,196,0.0,-999.0,87,-99.99,,,0.00,0,weatherlink.com 1.10,2013-09-19 04:01:00,
2013-09-19 00:17:00,51.9,49.0,30.10,SSW,196,0.0,-999.0,88,-99.99,,,0.00,0,weatherlink.com 1.10,2013-09-19 04:17:00,
2013-09-19 00:31:00,51.4,48.0,30.10,SSW,196,0.0,-999.0,88,-99.99,,,0.00,0,weatherlink.com 1.10,2013-09-19 04:31:00,
2013-09-19 00:47:00,51.0,48.0,30.10,SSW,196,0.0,-999.0,88,-99.99,,,0.00,0,weatherlink.com 1.10,2013-09-19 04:47:00,
2013-09-19 01:02:00,50.5,47.0,30.10,SSW,196,0.0,-999.0,89,-99.99,,,0.00,0,weatherlink.com 1.10,2013-09-19 05:02:00,
2013-09-19 01:17:00,50.1,47.0,30.10,SSW,196,0.0,-999.0,89,-99.99,,,0.00,0,weatherlink.com 1.10,2013-09-19 05:17:00,
2013-09-19 01:32:00,49.6,47.0,30.09,SSW,196,0.0,-999.0,91,-99.99,,,0.00,0,weatherlink.com 1.10,2013-09-19 05:32:00,
2013-09-19 01:48:00,49.4,47.0,30.09,SSW,196,0.0,-999.0,91,-99.99,,,0.00,0,weatherlink.com 1.10,2013-09-19 05:48:00,
2013-09-19 02:02:00,49.1,47.0,30.09,SSW,196,0.0,-999.0,92,-99.99,,,0.00,0,weatherlink.com 1.10,2013-09-19 06:02:00,
2013-09-19 02:18:00,49.1,47.0,30.09,SSW,196,0.0,-999.0,93,-99.99,,,0.00,0,weatherlink.com 1.10,2013-09-19 06:18:00,
2013-09-19 02:33:00,49.2,47.0,30.08,SSW,196,0.0,-999.0,93,-99.99,,,0.00,0,weatherlink.com 1.10,2013-09-19 06:33:00,
2013-09-19 02:47:00,49.2,47.0,30.08,SSW,196,0.0,-999.0,93,-99.99,,,0.00,0,weatherlink.com 1.10,2013-09-19 06:47:00,
2013-09-19 03:03:00,49.2,48.0,30.08,SSW,196,0.0,-999.0,94,-99.99,,,0.00,0,weatherlink.com 1.10,2013-09-19 07:03:00,
2013-09-19 03:19:00,49.1,48.0,30.07,SSW,196,0.0,-999.0,94,-99.99,,,0.00,0,weatherlink.com 1.10,2013-09-19 07:19:00,
2013-09-19 03:34:00,49.2,48.0,30.07,SSW,196,0.0,-999.0,94,-99.99,,,0.00,0,weatherlink.com 1.10,2013-09-19 07:34:00,
2013-09-19 03:49:00,49.1,48.0,30.07,SSW,196,0.0,-999.0,94,-99.99,,,0.00,0,weatherlink.com 1.10,2013-09-19 07:49:00,
2013-09-19 04:03:00,48.9,47.0,30.07,SSW,196,0.0,-999.0,93,-99.99,,,0.00,0,weatherlink.com 1.10,2013-09-19 08:03:00,
2013-09-19 04:19:00,48.6,46.0,30.07,SSW,196,0.0,-999.0,92,-99.99,,,0.00,0,weatherlink.com 1.10,2013-09-19 08:19:00,
2013-09-19 04:33:00,48.0,46.0,30.07,SSW,196,0.0,-999.0,93,-99.99,,,0.00,0,weatherlink.com 1.10,2013-09-19 08:33:00,
2013-09-19 04:49:00,47.7,46.0,30.07,SSW,196,0.0,-999.0,93,-99.99,,,0.00,0,weatherlink.com 1.10,2013-09-19 08:49:00,
2013-09-19 05:04:00,47.4,46.0,30.07,SSW,196,0.0,-999.0,93,-99.99,,,0.00,0,weatherlink.com 1.10,2013-09-19 09:04:00,
2013-09-19 05:21:00,47.4,46.0,30.07,SSW,196,0.0,-999.0,94,-99.99,,,0.00,0,weatherlink.com 1.10,2013-09-19 09:21:00,
2013-09-19 05:34:00,47.3,46.0,30.07,SSW,196,0.0,-999.0,94,-99.99,,,0.00,0,weatherlink.com 1.10,2013-09-19 09:34:00,
2013-09-19 05:51:00,47.3,46.0,30.07,SSW,196,0.0,-999.0,95,-99.99,,,0.00,0,weatherlink.com 1.10,2013-09-19 09:51:00,
2013-09-19 06:04:00,47.1,46.0,30.07,SSW,196,0.0,-999.0,95,-99.99,,,0.00,0,weatherlink.com 1.10,2013-09-19 10:04:00,
2013-09-19 06:21:00,46.7,45.0,30.08,SSW,196,0.0,-999.0,95,-99.99,,,0.00,0,weatherlink.com 1.10,2013-09-19 10:21:00,
2013-09-19 06:35:00,46.7,45.0,30.08,SSW,196,0.0,-999.0,95,-99.99,,,0.00,0,weatherlink.com 1.10,2013-09-19 10:35:00,
2013-09-19 06:52:00,46.8,46.0,30.08,SSW,196,0.0,-999.0,96,-99.99,,,0.00,5,weatherlink.com 1.10,2013-09-19 10:52:00,
2013-09-19 07:06:00,47.1,46.0,30.09,SSW,196,0.0,-999.0,96,-99.99,,,0.00,9,weatherlink.com 1.10,2013-09-19 11:06:00,
2013-09-19 07:22:00,47.4,46.0,30.09,SSW,196,0.0,-999.0,96,-99.99,,,0.00,12,weatherlink.com 1.10,2013-09-19 11:22:00,
2013-09-19 07:36:00,47.9,47.0,30.09,SSW,196,0.0,-999.0,97,-99.99,,,0.00,18,weatherlink.com 1.10,2013-09-19 11:36:00,
2013-09-19 07:51:00,48.5,48.0,30.09,SSW,196,0.0,-999.0,97,-99.99,,,0.00,21,weatherlink.com 1.10,2013-09-19 11:51:00,
2013-09-19 08:06:00,49.1,49.0,30.09,SSW,196,0.0,-999.0,100,-99.99,,,0.00,26,weatherlink.com 1.10,2013-09-19 12:06:00,
2013-09-19 08:21:00,49.8,50.0,30.08,SSW,196,0.0,-999.0,100,-99.99,,,0.00,30,weatherlink.com 1.10,2013-09-19 12:21:00,
2013-09-19 08:36:00,50.5,51.0,30.08,SSW,196,0.0,-999.0,100,-99.99,,,0.00,35,weatherlink.com 1.10,2013-09-19 12:36:00,
2013-09-19 08:51:00,51.6,52.0,30.09,SSW,196,0.0,-999.0,100,-99.99,,,0.00,37,weatherlink.com 1.10,2013-09-19 12:51:00,
2013-09-19 09:07:00,53.1,53.0,30.09,SE,141,0.0,-999.0,100,-99.99,,,0.00,42,weatherlink.com 1.10,2013-09-19 13:07:00,
2013-09-19 09:21:00,54.1,53.0,30.09,SE,141,0.0,-999.0,97,-99.99,,,0.00,46,weatherlink.com 1.10,2013-09-19 13:21:00,
2013-09-19 09:37:00,55.6,54.0,30.09,SE,142,0.0,-999.0,95,-99.99,,,0.00,148,weatherlink.com 1.10,2013-09-19 13:37:00,
2013-09-19 09:52:00,57.6,55.0,30.09,SE,141,0.0,-999.0,90,-99.99,,,0.00,561,weatherlink.com 1.10,2013-09-19 13:52:00,
2013-09-19 10:07:00,60.1,55.0,30.09,SE,141,0.0,-999.0,83,-99.99,,,0.00,606,weatherlink.com 1.10,2013-09-19 14:07:00,
2013-09-19 10:22:00,62.3,54.0,30.09,SE,141,0.0,-999.0,75,-99.99,,,0.00,643,weatherlink.com 1.10,2013-09-19 14:22:00,
2013-09-19 10:38:00,64.2,55.0,30.09,SE,141,0.0,-999.0,72,-99.99,,,0.00,680,weatherlink.com 1.10,2013-09-19 14:38:00,
2013-09-19 10:52:00,66.3,54.0,30.08,SE,141,0.0,-999.0,65,-99.99,,,0.00,708,weatherlink.com 1.10,2013-09-19 14:52:00,
2013-09-19 11:08:00,68.8,56.0,30.08,SSE,148,0.0,-999.0,63,-99.99,,,0.00,742,weatherlink.com 1.10,2013-09-19 15:08:00,
2013-09-19 11:22:00,70.8,53.0,30.08,SSE,150,0.0,-999.0,53,-99.99,,,0.00,766,weatherlink.com 1.10,2013-09-19 15:22:00,
2013-09-19 11:38:00,72.5,54.0,30.07,SSE,150,0.0,-999.0,53,-99.99,,,0.00,788,weatherlink.com 1.10,2013-09-19 15:38:00,
2013-09-19 11:53:00,74.0,55.0,30.07,SSE,150,0.0,-999.0,52,-99.99,,,0.00,807,weatherlink.com 1.10,2013-09-19 15:53:00,
2013-09-19 12:09:00,75.3,56.0,30.07,SSE,150,0.0,-999.0,52,-99.99,,,0.00,823,weatherlink.com 1.10,2013-09-19 16:09:00,
2013-09-19 12:23:00,76.7,56.0,30.07,SSE,150,1.0,-999.0,49,-99.99,,,0.00,833,weatherlink.com 1.10,2013-09-19 16:23:00,
2013-09-19 12:39:00,77.6,56.0,30.07,SSE,150,0.0,-999.0,47,-99.99,,,0.00,840,weatherlink.com 1.10,2013-09-19 16:39:00,
2013-09-19 12:53:00,78.3,51.0,30.07,SE,135,0.0,-999.0,39,-99.99,,,0.00,846,weatherlink.com 1.10,2013-09-19 16:53:00,
2013-09-19 13:09:00,79.0,56.0,30.07,SE,135,0.0,-999.0,46,-99.99,,,0.00,840,weatherlink.com 1.10,2013-09-19 17:09:00,
2013-09-19 13:24:00,79.6,55.0,30.05,SE,135,0.0,-999.0,43,-99.99,,,0.00,837,weatherlink.com 1.10,2013-09-19 17:24:00,
2013-09-19 13:41:00,79.8,55.0,30.05,ESE,123,0.0,-999.0,42,-99.99,,,0.00,826,weatherlink.com 1.10,2013-09-19 17:41:00,
2013-09-19 13:54:00,80.7,55.0,30.05,SE,128,0.0,-999.0,42,-99.99,,,0.00,817,weatherlink.com 1.10,2013-09-19 17:54:00,
2013-09-19 14:11:00,81.1,48.0,30.04,ESE,117,2.0,-999.0,31,-99.99,,,0.00,789,weatherlink.com 1.10,2013-09-19 18:11:00,
2013-09-19 14:24:00,81.2,54.0,30.03,ESE,117,0.0,-999.0,39,-99.99,,,0.00,770,weatherlink.com 1.10,2013-09-19 18:24:00,
2013-09-19 14:41:00,81.1,54.0,30.03,ESE,117,0.0,-999.0,39,-99.99,,,0.00,742,weatherlink.com 1.10,2013-09-19 18:41:00,
2013-09-19 14:56:00,81.2,54.0,30.02,ESE,117,0.0,-999.0,39,-99.99,,,0.00,708,weatherlink.com 1.10,2013-09-19 18:56:00,
2013-09-19 15:11:00,81.2,54.0,30.02,NE,45,0.0,-999.0,39,-99.99,,,0.00,671,weatherlink.com 1.10,2013-09-19 19:11:00,
2013-09-19 15:26:00,80.9,53.0,30.02,NE,40,0.0,-999.0,38,-99.99,,,0.00,635,weatherlink.com 1.10,2013-09-19 19:26:00,
2013-09-19 15:41:00,81.1,55.0,30.01,NE,55,1.0,-999.0,40,-99.99,,,0.00,519,weatherlink.com 1.10,2013-09-19 19:41:00,
2013-09-19 15:56:00,80.5,53.0,30.01,SE,134,0.0,-999.0,39,-99.99,,,0.00,408,weatherlink.com 1.10,2013-09-19 19:56:00,
2013-09-19 16:11:00,79.9,57.0,30.00,SE,138,0.0,-999.0,45,-99.99,,,0.00,63,weatherlink.com 1.10,2013-09-19 20:11:00,
2013-09-19 16:26:00,78.8,53.0,30.00,SE,128,1.0,-999.0,41,-99.99,,,0.00,102,weatherlink.com 1.10,2013-09-19 20:26:00,
2013-09-19 16:41:00,78.3,58.0,30.00,SE,128,0.0,-999.0,49,-99.99,,,0.00,60,weatherlink.com 1.10,2013-09-19 20:41:00,
2013-09-19 16:56:00,77.4,58.0,30.00,SE,128,0.0,-999.0,51,-99.99,,,0.00,181,weatherlink.com 1.10,2013-09-19 20:56:00,
2013-09-19 17:11:00,76.7,59.0,30.00,SE,128,0.0,-999.0,55,-99.99,,,0.00,199,weatherlink.com 1.10,2013-09-19 21:11:00,
2013-09-19 17:26:00,76.0,59.0,30.00,SE,127,0.0,-999.0,55,-99.99,,,0.00,229,weatherlink.com 1.10,2013-09-19 21:26:00,
2013-09-19 17:41:00,75.1,58.0,29.99,SE,127,0.0,-999.0,56,-99.99,,,0.00,23,weatherlink.com 1.10,2013-09-19 21:41:00,
2013-09-19 17:57:00,74.0,58.0,29.99,SE,127,0.0,-999.0,58,-99.99,,,0.00,16,weatherlink.com 1.10,2013-09-19 21:57:00,
2013-09-19 18:12:00,72.5,59.0,29.99,SE,127,0.0,-999.0,62,-99.99,,,0.00,12,weatherlink.com 1.10,2013-09-19 22:12:00,
2013-09-19 18:27:00,71.5,59.0,30.00,SE,127,0.0,-999.0,64,-99.99,,,0.00,7,weatherlink.com 1.10,2013-09-19 22:27:00,
2013-09-19 18:42:00,69.9,58.0,30.00,SE,127,0.0,-999.0,67,-99.99,,,0.00,0,weatherlink.com 1.10,2013-09-19 22:42:00,
2013-09-19 18:57:00,68.8,58.0,30.00,SE,127,0.0,-999.0,68,-99.99,,,0.00,0,weatherlink.com 1.10,2013-09-19 22:57:00,
2013-09-19 19:12:00,67.4,56.0,30.01,SE,127,0.0,-999.0,68,-99.99,,,0.00,0,weatherlink.com 1.10,2013-09-19 23:12:00,
2013-09-19 19:28:00,66.0,56.0,30.00,SE,127,0.0,-999.0,71,-99.99,,,0.00,0,weatherlink.com 1.10,2013-09-19 23:28:00,
2013-09-19 19:42:00,64.8,56.0,30.01,SE,127,0.0,-999.0,73,-99.99,,,0.00,0,weatherlink.com 1.10,2013-09-19 23:42:00,
2013-09-19 19:58:00,63.5,56.0,30.01,SE,127,0.0,-999.0,76,-99.99,,,0.00,0,weatherlink.com 1.10,2013-09-19 23:58:00,
2013-09-19 20:12:00,62.6,55.0,30.02,SE,127,0.0,-999.0,76,-99.99,,,0.00,0,weatherlink.com 1.10,2013-09-20 00:12:00,
2013-09-19 20:28:00,61.8,55.0,30.02,SE,127,0.0,-999.0,79,-99.99,,,0.00,0,weatherlink.com 1.10,2013-09-20 00:28:00,
2013-09-19 20:43:00,60.9,55.0,30.02,SE,127,0.0,-999.0,80,-99.99,,,0.00,0,weatherlink.com 1.10,2013-09-20 00:43:00,
2013-09-19 20:58:00,60.2,55.0,30.02,SE,127,0.0,-999.0,83,-99.99,,,0.00,0,weatherlink.com 1.10,2013-09-20 00:58:00,
2013-09-19 21:13:00,59.6,55.0,30.02,SE,127,0.0,-999.0,84,-99.99,,,0.00,0,weatherlink.com 1.10,2013-09-20 01:13:00,
2013-09-19 21:29:00,58.9,54.0,30.02,SE,127,0.0,-999.0,84,-99.99,,,0.00,0,weatherlink.com 1.10,2013-09-20 01:29:00,
2013-09-19 21:43:00,58.4,54.0,30.02,SE,127,0.0,-999.0,85,-99.99,,,0.00,0,weatherlink.com 1.10,2013-09-20 01:43:00,
2013-09-19 21:59:00,58.0,54.0,30.02,SE,127,0.0,-999.0,86,-99.99,,,0.00,0,weatherlink.com 1.10,2013-09-20 01:59:00,
2013-09-19 22:13:00,57.6,54.0,30.02,SE,127,0.0,-999.0,86,-99.99,,,0.00,0,weatherlink.com 1.10,2013-09-20 02:13:00,
2013-09-19 22:29:00,57.3,54.0,30.02,SE,127,0.0,-999.0,87,-99.99,,,0.00,0,weatherlink.com 1.10,2013-09-20 02:29:00,
2013-09-19 22:44:00,57.2,53.0,30.02,SE,127,0.0,-999.0,87,-99.99,,,0.00,0,weatherlink.com 1.10,2013-09-20 02:44:00,
2013-09-19 22:59:00,56.7,53.0,30.02,SE,127,0.0,-999.0,86,-99.99,,,0.00,0,weatherlink.com 1.10,2013-09-20 02:59:00,
2013-09-19 23:14:00,56.5,53.0,30.02,SE,127,0.0,-999.0,87,-99.99,,,0.00,0,weatherlink.com 1.10,2013-09-20 03:14:00,
2013-09-19 23:31:00,55.9,52.0,30.02,SE,127,0.0,-999.0,86,-99.99,,,0.00,0,weatherlink.com 1.10,2013-09-20 03:31:00,
2013-09-19 23:44:00,55.6,52.0,30.02,SE,127,0.0,-999.0,87,-99.99,,,0.00,0,weatherlink.com 1.10,2013-09-20 03:44:00,